Latest Weather Observations for Albany Airport

IDW60801

Issued at 12:02 pm WST Saturday 13 February 2016 (issued every 30 minutes, with the page automatically refreshed every 10 minutes)

About weather observations | Map of weather stations | Latest weather observations for WA | Other Formats
Station Details ID: 009999 Name: ALBANY AIRPORT Lat: -34.94 Lon: 117.82 Height: 68.4 m
Data from the previous 72 hours. | See also: Recent months at Albany Airport
Date/Time
WST
Temp
°C
App
Temp
°C
Dew
Point
Rel
Hum
%
Delta-T
°C
Wind Press
QNH
hPa
Press
MSL
hPa
Rain
since 9 am
mm
Dir
 
Spd
km/h
Gust
km/h
Spd
kts
Gust
kts
13/11:30am 19.1 15.1 8.2 49 5.6 S 19 26 10 14 1024.4 - 0.0
13/11:00am 19.2 14.5 7.9 48 5.8 SSW 22 30 12 16 1024.7 - 0.0
13/10:30am 18.8 14.6 8.1 49 5.5 SSW 20 26 11 14 1024.7 - 0.0
13/10:00am 18.1 14.6 8.8 54 4.8 S 17 20 9 11 1024.6 - 0.0
13/09:30am 18.3 14.6 7.9 50 5.3 S 17 22 9 12 1024.5 - 0.0
13/09:00am 18.6 14.3 7.8 49 5.5 SSW 20 28 11 15 1024.5 1024.4 0.0
13/08:30am 18.6 15.1 8.8 53 5.1 S 17 26 9 14 1024.2 - 0.0
13/08:00am 18.0 14.9 8.7 54 4.8 S 15 24 8 13 1024.0 - 0.0
13/07:30am 17.5 13.5 9.0 57 4.4 SSW 20 28 11 15 1023.8 - 0.0
13/07:00am 17.0 14.4 10.8 67 3.3 SSW 15 20 8 11 1023.4 - 0.0
13/06:30am 16.2 13.9 9.0 62 3.7 SSW 11 20 6 11 1023.2 - 0.0
13/06:00am 15.2 13.6 8.9 66 3.2 SSW 7 9 4 5 1022.8 1022.7 0.0
13/05:30am 16.0 12.6 7.8 58 4.1 SSW 15 22 8 12 1022.3 - 0.0
13/05:00am 16.4 14.1 9.0 61 3.8 SSW 11 17 6 9 1022.0 - 0.0
13/04:30am 16.1 14.1 8.7 61 3.8 WSW 9 11 5 6 1021.7 - 0.0
13/04:00am 15.6 13.6 8.5 62 3.6 SSW 9 11 5 6 1021.4 - 0.0
13/03:30am 16.0 12.6 7.8 58 4.1 SSW 15 20 8 11 1021.4 - 0.0
13/03:00am 16.4 13.7 8.8 60 3.9 SSW 13 19 7 10 1021.2 1021.1 0.0
13/02:30am 16.0 13.4 9.2 64 3.5 SSW 13 19 7 10 1021.0 - 0.0
13/02:00am 16.4 14.1 10.6 68 3.1 S 13 19 7 10 1020.9 - 0.0
13/01:30am 16.1 15.0 11.9 76 2.3 SSW 9 11 5 6 1020.9 - 0.0
13/01:00am 16.1 14.9 11.7 75 2.4 SW 9 13 5 7 1021.0 - 0.0
13/12:30am 15.4 14.6 11.7 78 2.0 SSW 7 9 4 5 1021.0 - 0.0
13/12:00am 16.7 15.3 12.1 74 2.5 SSW 11 13 6 7 1021.1 1021.0 0.0
 
Date/Time
WST
Temp
°C
App
Temp
°C
Dew
Point
Rel
Hum
%
Delta-T
°C
Wind Press
QNH
hPa
Press
MSL
hPa
Rain
since 9 am
mm
Dir
 
Spd
km/h
Gust
km/h
Spd
kts
Gust
kts
12/11:30pm 17.1 16.2 12.6 75 2.5 SSW 9 13 5 7 1021.2 - 0.0
12/11:00pm 17.2 16.4 12.9 76 2.4 SSW 9 13 5 7 1021.2 - 0.0
12/10:30pm 17.1 16.5 13.4 79 2.1 SSW 9 13 5 7 1021.2 - 0.0
12/10:00pm 17.2 16.7 13.9 81 1.9 SW 9 13 5 7 1021.3 - 0.0
12/09:30pm 17.7 16.9 14.0 79 2.1 S 11 17 6 9 1021.3 - 0.0
12/09:00pm 17.9 16.8 14.4 80 2.0 SSW 13 17 7 9 1020.9 1020.8 0.0
12/08:30pm 18.0 16.9 14.3 79 2.1 SW 13 17 7 9 1020.6 - 0.0
12/08:00pm 17.8 16.6 15.1 84 1.6 SW 15 20 8 11 1020.5 - 0.0
12/07:30pm 17.7 17.4 15.5 87 1.3 SSW 11 19 6 10 1020.1 - 0.0
12/07:27pm 17.6 17.0 15.7 89 1.1 SSW 13 20 7 11 1020.1 - 0.0
12/07:14pm 17.8 17.8 16.3 91 0.9 SSW 11 17 6 9 1020.0 - 0.0
12/07:00pm 17.7 17.4 16.5 93 0.7 S 13 19 7 10 1019.8 - 0.0
12/06:58pm 17.7 17.0 16.5 93 0.7 SSW 15 22 8 12 1019.8 - 0.0
12/06:51pm 17.7 16.3 16.5 93 0.7 SSW 19 26 10 14 1019.7 - 0.0
12/06:34pm 18.2 17.7 16.9 92 0.8 SW 15 30 8 16 1019.5 - 0.0
12/06:33pm 18.3 17.8 17.0 92 0.8 SW 15 30 8 16 1019.5 - 0.0
12/06:30pm 18.4 18.3 16.9 91 0.9 SW 13 20 7 11 1019.4 - 0.0
12/06:13pm 18.2 18.1 16.9 92 0.8 SW 13 17 7 9 1019.3 - 0.0
12/06:11pm 18.2 18.1 16.9 92 0.8 SW 13 20 7 11 1019.3 - 0.0
12/06:00pm 18.0 16.5 16.8 93 0.7 SW 20 28 11 15 1019.2 1019.1 0.0
12/05:31pm 18.3 18.3 17.1 93 0.7 SW 13 19 7 10 1018.8 - 0.0
12/05:30pm 18.3 18.3 17.1 93 0.7 SW 13 19 7 10 1018.8 - 0.0
12/05:04pm 18.3 17.1 17.1 93 0.7 SW 19 28 10 15 1018.7 - 0.0
12/05:00pm 18.6 17.8 17.1 91 0.9 SW 17 22 9 12 1018.6 - 0.0
12/04:47pm 18.5 16.0 17.0 91 0.9 SSW 26 35 14 19 1018.5 - 0.0
12/04:43pm 18.6 15.6 16.9 90 1.0 SSW 28 35 15 19 1018.4 - 0.0
12/04:30pm 20.3 17.6 16.7 80 2.2 SSW 26 37 14 20 1018.2 - 0.0
12/04:00pm 23.0 20.1 15.1 61 4.7 SW 24 33 13 18 1017.7 - 0.0
12/03:30pm 23.2 20.1 14.6 58 5.1 WSW 24 33 13 18 1017.7 - 0.0
12/03:00pm 23.5 20.4 14.4 56 5.4 SW 24 32 13 17 1017.6 1017.5 0.0
12/02:30pm 24.7 21.5 14.2 52 6.2 WSW 24 32 13 17 1017.7 - 0.0
12/02:00pm 23.0 20.1 14.1 57 5.2 SW 22 30 12 16 1018.0 - 0.0
12/01:30pm 23.9 21.8 13.6 52 6.0 SW 17 22 9 12 1018.1 - 0.0
12/01:00pm 23.3 20.5 13.3 53 5.8 W 20 24 11 13 1018.4 - 0.0
12/12:30pm 23.3 20.8 13.5 54 5.7 SW 19 28 10 15 1018.4 - 0.0
12/12:00pm 22.7 20.0 13.4 55 5.4 WSW 20 33 11 18 1018.5 1018.4 0.0
12/11:30am 23.0 20.6 13.9 56 5.3 SSW 19 30 10 16 1018.6 - 0.0
12/11:00am 22.4 19.8 13.8 58 5.0 SSW 20 30 11 16 1018.6 - 0.0
12/10:30am 22.4 20.1 13.0 55 5.4 SW 17 24 9 13 1018.4 - 0.0
12/10:00am 22.4 20.0 12.8 54 5.5 WSW 17 24 9 13 1018.3 - 0.0
12/09:30am 21.6 18.9 11.6 53 5.6 SW 17 24 9 13 1018.2 - 0.0
12/09:00am 21.1 18.5 13.2 60 4.5 SW 19 24 10 13 1018.3 1018.2 0.0
12/08:30am 19.8 17.6 14.3 70 3.2 WSW 19 26 10 14 1018.2 - 0.0
12/08:00am 20.2 18.5 14.7 70 3.2 WSW 17 24 9 13 1018.0 - 0.0
12/07:30am 19.6 18.7 14.8 74 2.8 WSW 13 19 7 10 1017.7 - 0.0
12/07:00am 19.1 18.6 15.0 77 2.4 WSW 11 13 6 7 1017.4 - 0.0
12/06:30am 18.4 18.0 15.3 82 1.8 WSW 11 19 6 10 1017.1 - 0.0
12/06:00am 17.8 17.9 15.6 87 1.3 WNW 9 11 5 6 1016.8 1016.7 0.0
12/05:30am 17.4 17.5 15.5 89 1.1 WNW 9 9 5 5 1016.6 - 0.0
12/05:00am 17.2 17.8 15.7 91 0.9 WNW 7 9 4 5 1016.1 - 0.0
12/04:30am 17.3 18.0 15.6 90 1.0 NW 6 7 3 4 1015.7 - 0.0
12/04:00am 18.4 19.3 16.0 86 1.4 WSW 6 7 3 4 1015.7 - 0.0
12/03:30am 18.6 18.8 15.7 83 1.7 WSW 9 13 5 7 1015.7 - 0.0
12/03:00am 18.8 18.9 15.4 80 2.0 W 9 13 5 7 1015.4 1015.3 0.0
12/02:30am 18.8 18.8 15.2 79 2.1 WSW 9 13 5 7 1015.1 - 0.0
12/02:00am 18.8 18.7 15.9 83 1.7 WSW 11 13 6 7 1015.2 - 0.0
12/01:30am 18.7 19.4 16.0 84 1.6 WSW 7 11 4 6 1015.0 - 0.0
12/01:00am 18.8 18.8 16.3 85 1.5 SW 11 15 6 8 1015.0 - 0.0
12/12:36am 19.0 19.1 16.5 85 1.5 WSW 11 15 6 8 1015.2 - 0.0
12/12:30am 19.0 19.1 16.5 85 1.5 SW 11 13 6 7 1015.2 - 0.0
12/12:00am 19.1 18.9 16.6 85 1.5 SW 13 17 7 9 1015.1 1015.0 0.0
 
Date/Time
WST
Temp
°C
App
Temp
°C
Dew
Point
Rel
Hum
%
Delta-T
°C
Wind Press
QNH
hPa
Press
MSL
hPa
Rain
since 9 am
mm
Dir
 
Spd
km/h
Gust
km/h
Spd
kts
Gust
kts
11/11:30pm 19.3 19.8 16.6 84 1.6 SW 9 11 5 6 1015.0 - 0.0
11/11:00pm 19.3 20.5 16.8 85 1.5 SSW 6 9 3 5 1015.3 - 0.0
11/10:30pm 19.3 20.3 16.8 85 1.5 SW 7 9 4 5 1015.6 - 0.0
11/10:00pm 19.3 20.3 16.8 85 1.5 SSW 7 9 4 5 1015.7 - 0.0
11/09:37pm 19.3 20.5 16.8 85 1.5 S 6 7 3 4 1015.5 - 0.0
11/09:30pm 19.2 20.4 16.9 86 1.4 S 6 9 3 5 1015.6 - 0.0
11/09:24pm 19.2 20.2 16.9 86 1.4 S 7 9 4 5 1015.6 - 0.0
11/09:00pm 19.3 20.0 17.0 86 1.4 S 9 13 5 7 1015.4 1015.3 0.0
11/08:30pm 19.4 20.2 17.3 88 1.3 SSW 9 11 5 6 1015.1 - 0.0
11/08:00pm 19.2 19.8 16.9 86 1.4 S 9 13 5 7 1014.7 - 0.0
11/07:52pm 19.3 20.0 17.0 86 1.4 S 9 13 5 7 1014.7 - 0.0
11/07:30pm 19.4 19.7 16.9 85 1.5 SSE 11 15 6 8 1014.4 - 0.0
11/07:00pm 20.1 20.0 17.0 82 1.9 SSE 13 19 7 10 1013.9 - 0.0
11/06:30pm 21.0 20.5 16.9 77 2.5 SSE 15 20 8 11 1013.6 - 0.0
11/06:00pm 22.1 21.4 17.4 74 2.9 SE 17 20 9 11 1013.0 1012.8 0.0
11/05:30pm 22.5 21.3 17.0 71 3.4 SE 19 26 10 14 1012.6 - 0.0
11/05:00pm 23.2 22.4 17.0 68 3.8 SE 17 20 9 11 1012.4 - 0.0
11/04:30pm 24.2 23.9 17.3 65 4.3 SE 15 20 8 11 1012.2 - 0.0
11/04:00pm 24.3 24.0 17.4 65 4.3 SE 15 19 8 10 1012.2 - 0.0
11/03:30pm 23.9 22.7 17.1 65 4.2 SE 19 24 10 13 1012.7 - 0.0
11/03:00pm 24.3 23.6 17.4 65 4.3 SE 17 22 9 12 1012.9 1012.7 0.0
11/02:30pm 24.4 23.3 17.3 64 4.4 SE 19 26 10 14 1013.3 - 0.0
11/02:00pm 24.7 23.9 17.1 62 4.7 SE 17 22 9 12 1013.6 - 0.0
11/01:30pm 24.4 24.0 17.1 63 4.5 ESE 15 22 8 12 1014.0 - 0.0
11/01:00pm 23.5 23.4 17.0 67 4.0 ESE 13 20 7 11 1014.4 - 0.0
11/12:30pm 23.3 22.4 16.8 67 4.0 ESE 17 22 9 12 1014.7 - 0.0
11/12:00pm 22.3 21.7 16.6 70 3.5 ESE 15 22 8 12 1015.1 1015.0 0.0
11/11:30am 22.0 21.1 16.8 72 3.2 SE 17 22 9 12 1015.2 - 0.0
11/11:18am 21.9 21.0 16.8 73 3.1 SE 17 20 9 11 1015.0 - 0.0
11/11:00am 21.4 20.1 16.8 75 2.8 SE 19 24 10 13 1015.3 - 0.0
11/10:30am 21.3 20.5 17.1 77 2.6 SE 17 24 9 13 1015.4 - 0.0
11/10:00am 21.1 19.9 17.0 77 2.5 ESE 19 24 10 13 1015.5 - 0.0
11/09:52am 21.0 20.2 17.1 78 2.4 SE 17 24 9 13 1015.4 - 0.0
11/09:30am 21.0 20.5 16.9 77 2.5 SE 15 20 8 11 1015.6 - 0.0
11/09:00am 20.7 20.1 16.6 77 2.5 ESE 15 22 8 12 1015.8 1015.7 0.0
11/08:30am 20.5 19.8 16.5 78 2.4 ESE 15 19 8 10 1015.8 - 0.0
11/08:00am 20.0 19.0 16.7 81 2.0 ESE 17 24 9 13 1015.8 - 0.0
11/07:30am 19.9 19.3 16.6 81 2.0 ESE 15 19 8 10 1015.9 - 0.0
11/07:00am 19.7 18.6 16.4 81 2.0 ESE 17 22 9 12 1015.7 - 0.0
11/06:30am 19.4 19.2 16.6 84 1.7 E 13 19 7 10 1015.7 - 0.0
11/06:00am 19.3 19.1 16.6 84 1.6 E 13 19 7 10 1015.4 1015.3 0.0
11/05:30am 19.2 18.9 16.4 84 1.7 ESE 13 20 7 11 1015.2 - 0.0
11/05:00am 19.2 18.9 16.4 84 1.7 ESE 13 15 7 8 1015.1 - 0.0
11/04:30am 19.2 18.9 16.4 84 1.7 E 13 17 7 9 1015.1 - 0.0
11/04:00am 19.2 18.8 16.2 83 1.8 E 13 17 7 9 1015.0 - 0.0
11/03:30am 19.1 19.1 16.3 84 1.7 E 11 13 6 7 1015.1 - 0.0
11/03:00am 19.0 19.8 16.3 84 1.6 E 7 11 4 6 1014.8 1014.7 0.0
11/02:30am 19.1 18.4 16.3 84 1.7 ENE 15 19 8 10 1014.9 - 0.0
11/02:00am 19.2 18.0 16.2 83 1.8 ENE 17 24 9 13 1015.3 - 0.0
11/01:30am 19.2 18.0 16.2 83 1.8 ENE 17 28 9 15 1015.6 - 0.0
11/01:00am 19.2 17.7 16.2 83 1.8 E 19 30 10 16 1015.8 - 0.0
11/12:30am 19.3 17.5 16.1 82 1.9 E 20 26 11 14 1016.0 - 0.0
11/12:00am 19.4 17.3 16.1 81 2.0 ENE 22 32 12 17 1016.3 1016.2 0.0
 
Date/Time
WST
Temp
°C
App
Temp
°C
Dew
Point
Rel
Hum
%
Delta-T
°C
Wind Press
QNH
hPa
Press
MSL
hPa
Rain
since 9 am
mm
Dir
 
Spd
km/h
Gust
km/h
Spd
kts
Gust
kts
10/11:30pm 19.5 18.4 16.3 82 1.9 E 17 24 9 13 1016.7 - 0.0
10/11:09pm 19.5 18.3 16.2 81 2.0 E 17 20 9 11 1017.0 - 0.0
10/11:00pm 19.5 18.7 16.2 81 2.0 E 15 22 8 12 1017.0 - 0.0
10/10:30pm 19.5 17.8 15.8 79 2.2 E 19 24 10 13 1017.2 - 0.0
10/10:00pm 19.7 18.2 16.2 80 2.1 E 19 26 10 14 1017.6 - 0.0
10/09:30pm 19.7 18.6 16.4 81 2.0 E 17 20 9 11 1017.6 - 0.0
10/09:00pm 19.7 17.9 16.0 79 2.2 E 20 28 11 15 1017.6 1017.5 0.0
10/08:30pm 19.5 17.6 15.8 79 2.2 E 20 30 11 16 1017.5 - 0.0
10/08:15pm 19.5 17.3 16.0 80 2.1 E 22 30 12 16 1017.2 - 0.0
10/08:00pm 19.8 18.0 16.1 79 2.2 E 20 30 11 16 1017.2 - 0.0
10/07:34pm 19.9 19.3 16.6 81 2.0 E 15 20 8 11 1017.1 - 0.0
10/07:30pm 19.9 18.8 16.4 80 2.1 E 17 28 9 15 1017.0 - 0.0
10/07:00pm 20.1 18.9 17.0 82 1.9 ESE 19 24 10 13 1016.8 - 0.0
10/06:30pm 20.5 18.9 16.0 75 2.7 ESE 19 26 10 14 1016.7 - 0.0
10/06:00pm 21.0 19.4 16.4 75 2.8 E 20 28 11 15 1016.5 1016.4 0.0
10/05:30pm 21.4 19.5 16.6 74 2.9 ESE 22 28 12 15 1016.5 - 0.0
10/05:00pm 21.5 19.2 16.7 74 2.9 E 24 30 13 16 1016.6 - 0.0
10/04:30pm 21.7 19.5 16.8 73 3.0 ESE 24 32 13 17 1016.6 - 0.0
10/04:00pm 21.9 19.7 17.0 73 3.0 ESE 24 30 13 16 1016.8 - 0.0
10/03:30pm 21.8 20.3 16.7 73 3.1 ESE 20 30 11 16 1017.3 - 0.0
10/03:00pm 22.3 20.5 16.9 71 3.3 E 22 28 12 15 1017.3 1017.2 0.0
10/02:30pm 22.4 20.2 16.8 70 3.4 SE 24 32 13 17 1017.4 - 0.0
10/02:00pm 22.8 20.6 16.9 69 3.6 ESE 24 32 13 17 1017.7 - 0.0
10/01:30pm 21.2 18.9 16.6 75 2.8 ESE 24 33 13 18 1017.7 - 0.0
10/01:00pm 21.5 19.0 16.2 72 3.2 ESE 24 32 13 17 1017.8 - 0.0
10/12:30pm 21.5 19.0 16.2 72 3.2 SE 24 32 13 17 1018.1 - 0.0

Other Formats:

Comma delimited format used in spreadsheet applications
http://www.bom.gov.au/fwo/IDW60801/IDW60801.94802.axf

JavaScript Object Notation format (JSON) in row-major order
http://www.bom.gov.au/fwo/IDW60801/IDW60801.94802.json